Terminal Aerodrome Forecast
Issued by NWS

Home | Current Version | Previous Version | Text Only | Print | Product List | Glossary On
Versions: 1 2 3 4 5 6 7 8 9 10 11 12 13 14 15 16 17 18 19
000
FTUS44 KJAN 161120
TAFGTR
TAF
KGTR 161120Z 1612/1712 14007KT P6SM OVC070
     FM161500 17010KT P6SM SCT015 BKN100
     FM161900 17013G18KT P6SM BKN040 BKN250
     FM170000 16010KT P6SM SCT030 OVC100
     FM170900 17008KT P6SM BKN010=

USA.gov is the U.S. government's official web portal to all federal, state and local government web resources and services.